Weather observations for the past three days for
Washington Island
Imperial (Metric)
Date Time (cdt) Wind (mph) Vis. (mi.) Weather Sky Cond. Temperature (ºF) Relative Humidity Wind Chill (°F) Heat Index (°F) Pressure Precipitation (in)
Air Dwpt 6 hour altimeter (in) sea level (mb) 1 hr 3 hr 6 hr
Max. Min.
09 23:55 W 5 10.00 Fair CLR 42.1 23.7 48% 40 29.88 0.0
09 23:35 W 5 10.00 Fair CLR 41.9 26.1 53% 40 29.88 0.0
09 23:15 W 3 10.00 Fair CLR 41.4 26.6 56% 29.87 0.0
09 22:55 Calm 10.00 Fair CLR 37.8 31.6 79% 29.87 0.0
09 22:35 Calm 10.00 Fair CLR 33.8 31.5 91% 29.87 0.0
09 22:15 Calm 10.00 Fair CLR 36.3 32 84% 29.86 0.0
09 21:55 Calm 10.00 Fair CLR 38.8 31.8 76% 29.85 0.0
09 21:35 Calm 10.00 Fair CLR 39.9 35.1 83% 29.85 0.0
09 21:15 N 6 10.00 Fair CLR 41.7 34.2 75% 38 29.84 0.0
09 20:55 N 5 10.00 Partly Cloudy SCT070 42.3 34.2 73% 40 29.83 0.0
09 20:35 N 6 10.00 Partly Cloudy SCT070 42.4 33.8 72% 39 29.82 0.0
09 20:15 N 7 10.00 Partly Cloudy SCT090 43.7 31.8 63% 40 29.8 0.0
09 19:55 N 13 10.00 Overcast OVC090 44.6 31.3 60% 39 29.79 0.0
09 19:35 N 13 10.00 Overcast OVC090 45.5 31.3 58% 40 29.78 0.0
09 19:15 N 9 10.00 Mostly Cloudy BKN080 45.7 30.9 56% 42 29.77 0.0
09 18:55 N 12 10.00 Partly Cloudy SCT080 46.6 28.6 58.3 45.9 50% 42 29.76 0.0
09 18:35 N 9 10.00 Fair CLR 46.4 31.3 56% 42 29.75 0.0
09 18:15 N 10 10.00 Partly Cloudy SCT080 46.9 32.2 57% 43 29.73 0.0
09 17:55 N 10 10.00 Partly Cloudy SCT080 48 30.9 52% 44 29.72 0.0
09 17:35 N 10 G 17 10.00 Fair CLR 48.6 32.5 54% 45 29.71 0.0
09 17:15 N 13 G 18 10.00 Partly Cloudy SCT080 50.7 30.6 46% 29.7 0.0
09 16:55 N 14 G 22 10.00 Mostly Cloudy BKN090 53.8 26.1 34% 29.68 0.0
09 16:30 N 10 G 22 10.00 Mostly Cloudy BKN090 54.5 21.9 28% 29.66 0.0
09 16:15 NW 17 G 25 10.00 Partly Cloudy SCT100 57.2 18 21% 29.65 0.0
09 15:55 NW 13 G 17 10.00 Overcast OVC100 55.9 19.6 24% 29.63 0.0
09 15:35 NW 8 G 16 10.00 Overcast BKN090 OVC110 54.7 21.2 27% 29.62 0.0
09 15:15 NW 7 10.00 Overcast OVC090 53.2 22.3 30% 29.62 0.0
09 14:50 NW 8 10.00 Overcast OVC100 55.6 15.8 21% 29.6 0.0
09 14:35 W 8 10.00 Mostly Cloudy BKN100 BKN120 57.2 14.4 18% 29.6 0.0
09 14:15 NW 10 G 16 10.00 Mostly Cloudy BKN110 57.6 16.9 20% 29.59 0.0
09 13:55 NW 10 G 17 10.00 Mostly Cloudy SCT085 BKN110 55.4 17.4 22% 29.58 0.0
09 13:35 NW 9 G 18 10.00 Overcast OVC085 53.1 20.7 28% 29.58 0.0
09 13:15 NW 12 G 17 10.00 Overcast OVC085 52.9 19.4 27% 29.57 0.0
09 12:55 NW 8 10.00 Overcast OVC085 53.2 21.4 55.8 48.6 29% 29.56 0.0
09 12:35 NW 8 G 17 10.00 Overcast SCT075 OVC085 54.3 19.4 25% 29.55 0.0
09 12:15 NW 6 10.00 Overcast OVC085 54.7 25.2 32% 29.55 0.0
09 11:55 SW 7 10.00 Overcast OVC075 54.3 27.3 35% 29.54 0.0
09 11:35 SW 8 10.00 Overcast OVC075 54.9 26.2 33% 29.54 0.0
09 11:15 SW 7 10.00 Overcast OVC075 53.2 28.8 39% 29.53 0.0
09 10:55 W 8 10.00 Overcast OVC075 54.7 21.7 28% 29.53 0.0
09 10:35 W 8 10.00 Overcast OVC075 54.5 23.7 30% 29.52 0.0
09 10:15 W 7 10.00 Overcast OVC075 53.1 23.7 32% 29.52 0.0
09 09:55 W 8 10.00 Overcast OVC075 52.2 24.8 35% 29.51 0.0
09 09:35 W 5 10.00 Overcast OVC090 49.6 31.1 49% 48 29.5 0.0
09 09:15 SW 6 10.00 Overcast OVC090 49.8 30.6 48% 48 29.5 0.0
09 08:55 W 5 10.00 Overcast OVC090 50.5 26.2 39% 29.51 0.0
09 08:35 NW 6 10.00 Mostly Cloudy BKN090 50.9 26.2 38% 29.5 0.0
09 08:15 NW 7 10.00 Overcast OVC100 50 29.5 45% 48 29.48 0.0
09 07:55 NW 8 10.00 Overcast OVC100 48.7 30.2 49% 46 29.48 0.0
09 07:35 NW 8 G 16 10.00 Overcast OVC110 49.6 28.4 44% 47 29.47 0.0
09 07:15 NW 9 10.00 Overcast OVC120 49.6 29.1 45% 46 29.46 0.0
09 06:55 NW 3 10.00 Overcast OVC120 49.5 30.6 49.5 44.1 48% 29.46 0.0
09 06:35 NW 6 10.00 Overcast SCT100 OVC120 49.5 32.2 52% 48 29.45 0.0
09 06:15 W 5 10.00 Mostly Cloudy BKN090 BKN120 48.2 39.4 72% 47 29.45 0.0
09 05:55 SW 5 10.00 Partly Cloudy SCT120 44.6 41.4 88% 43 29.45 0.0
09 05:35 S 6 10.00 Fair CLR 44.6 41.4 88% 42 29.44 0.0
09 05:15 S 3 10.00 Fair CLR 44.2 41 88% 29.44 0.0
09 04:55 Calm 10.00 Partly Cloudy SCT120 44.8 41.5 88% 29.44 0.0
09 04:35 S 5 10.00 Partly Cloudy SCT100 SCT120 45.1 41.9 88% 43 29.45 0.0
09 04:15 S 3 10.00 Partly Cloudy SCT100 45.3 41.9 88% 29.46 0.0
09 03:55 S 6 10.00 Partly Cloudy SCT110 45.5 42.1 88% 43 29.47 0.0
09 03:35 S 6 10.00 Fair CLR 44.8 41.5 88% 42 29.46 0.0
09 03:15 S 5 10.00 Fair CLR 44.8 41.5 88% 43 29.47 0.0
09 02:55 S 6 10.00 Partly Cloudy SCT110 44.6 41.5 89% 42 29.47 0.0
09 02:35 S 7 10.00 Mostly Cloudy BKN110 44.8 41.5 88% 41 29.48 0.0
09 02:15 S 8 10.00 Mostly Cloudy BKN110 44.6 41.2 88% 41 29.49 0.0
09 01:55 S 7 10.00 Partly Cloudy SCT110 44.6 41.2 88% 41 29.5 0.0
09 01:35 S 8 10.00 Fair CLR 44.6 41.2 88% 41 29.5 0.0
09 01:15 S 7 10.00 Fair CLR 45 41 86% 42 29.52 0.0
09 00:55 S 8 10.00 Partly Cloudy SCT120 45.1 39.9 51.3 44.1 82% 41 29.52 0.0
09 00:35 S 8 10.00 Partly Cloudy SCT120 44.8 37.6 76% 41 29.53 0.0
09 00:15 S 8 10.00 Partly Cloudy SCT110 45.5 36 69% 42 29.54 0.0
08 23:55 S 10 10.00 Partly Cloudy SCT120 45.3 34 65% 41 29.55 0.0
08 23:35 S 10 G 17 10.00 Fair CLR 45.7 32 59% 41 29.56 0.0
08 23:15 S 10 G 16 10.00 Partly Cloudy SCT110 46.4 32 57% 42 29.57 0.0
08 22:55 S 10 10.00 Partly Cloudy SCT120 45.1 32.9 62% 40 29.57 0.0
08 22:35 S 8 10.00 Mostly Cloudy SCT090 BKN120 44.4 32.9 64% 40 29.58 0.0
08 22:15 S 8 G 16 10.00 Mostly Cloudy BKN090 BKN120 45 32.2 61% 41 29.59 0.0
08 21:50 S 12 G 20 10.00 Overcast OVC090 46.4 30.7 55% 42 29.6 0.0
08 21:35 S 13 G 18 10.00 Mostly Cloudy BKN100 BKN120 46.8 30.6 53% 42 29.61 0.0
08 21:15 S 8 10.00 Partly Cloudy SCT120 46 31.6 57% 42 29.61 0.0
08 20:55 S 9 G 18 10.00 Partly Cloudy SCT110 47.3 28.9 49% 43 29.61 0.0
08 20:35 S 13 G 18 10.00 Mostly Cloudy BKN100 48.2 27.7 45% 43 29.62 0.0
08 19:55 S 8 10.00 Mostly Cloudy BKN090 50 25.3 38% 47 29.61 0.0
08 19:35 S 7 10.00 Partly Cloudy SCT100 47.7 30.7 52% 45 29.61 0.0
08 19:15 S 8 10.00 Mostly Cloudy BKN110 48.2 30.9 51% 45 29.61 0.0
08 18:55 S 10 G 16 10.00 Overcast OVC100 48.2 31.8 57.6 47.3 53% 44 29.62 0.0
08 18:35 S 10 G 16 10.00 Overcast OVC090 48.2 33.1 56% 44 29.62 0.0
08 18:15 S 9 10.00 Overcast OVC090 47.5 32.9 57% 44 29.62 0.0
08 17:55 S 12 G 18 10.00 Overcast OVC090 47.5 32 55% 43 29.63 0.0
08 17:35 S 12 G 16 10.00 Overcast OVC090 47.7 30 51% 43 29.63 0.0
08 17:15 S 12 G 18 10.00 Overcast OVC090 48.9 29.8 48% 45 29.64 0.0
08 16:50 S 12 G 18 10.00 Overcast OVC090 49.6 29.8 47% 46 29.64 0.0
08 16:35 S 10 G 17 10.00 Overcast OVC100 50.7 30.2 45% 29.64 0.0
08 16:15 S 9 10.00 Overcast OVC100 50.5 31.3 48% 29.64 0.0
08 15:35 S 10 10.00 Partly Cloudy SCT100 52.2 31.6 46% 29.65 0.0
08 14:55 SE 9 10.00 Mostly Cloudy BKN090 53.1 31.3 44% 29.67 0.0
08 14:35 S 9 10.00 Mostly Cloudy BKN100 52.9 29.3 40% 29.67 0.0
08 14:15 S 8 10.00 Mostly Cloudy BKN100 56.3 28.8 35% 29.68 0.0
08 13:55 S 9 10.00 Mostly Cloudy BKN100 56.1 25.7 31% 29.69 0.0
08 13:35 S 7 10.00 Partly Cloudy SCT100 56.7 25.5 30% 29.7 0.0
08 13:15 S 7 10.00 Fair CLR 56.1 25.2 30% 29.7 0.0
08 12:55 S 6 10.00 Fair CLR 55.9 24.1 56.3 41.7 29% 29.71 0.0
08 12:35 SW 10 10.00 Fair CLR 55.6 19.8 25% 29.72 0.0
08 12:10 SW 12 10.00 Fair CLR 55.4 21.2 26% 29.73 0.0
08 11:55 SW 10 10.00 Fair CLR 53.6 23.4 31% 29.74 0.0
08 11:35 SW 13 10.00 Fair CLR 52.9 22.8 31% 29.75 0.0
08 11:15 SW 10 10.00 Fair CLR 52.3 24.4 34% 29.75 0.0
08 10:55 SW 10 10.00 Fair CLR 50.9 25 36% 29.75 0.0
08 10:30 SW 10 10.00 Fair CLR 49.8 26.4 40% 46 29.76 0.0
08 10:15 SW 10 10.00 Fair CLR 49.1 26.4 41% 45 29.77 0.0
08 09:55 SW 10 10.00 Fair CLR 47.8 25.2 41% 44 29.77 0.0
08 09:35 SW 10 10.00 Fair CLR 48.2 25.5 41% 44 29.77 0.0
08 09:15 SW 9 10.00 Fair CLR 47.8 25.2 41% 44 29.77 0.0
08 08:55 SW 9 G 16 10.00 Fair CLR 47.3 25.2 42% 43 29.77 0.0
08 08:35 SW 9 10.00 Fair CLR 47.5 26.1 43% 44 29.77 0.0
08 08:15 SW 10 10.00 Fair CLR 46.2 27.1 47% 42 29.77 0.0
08 07:55 SW 10 G 16 10.00 Fair CLR 45 31.6 60% 40 29.78 0.0
08 07:35 SW 10 G 16 10.00 Fair CLR 44.2 32.4 63% 39 29.78 0.0
08 07:15 SW 6 10.00 Partly Cloudy SCT090 43.2 36.5 77% 40 29.78 0.0
08 06:55 S 6 10.00 Mostly Cloudy BKN090 41.4 38.1 41.4 32.2 88% 38 29.77 0.0
08 06:35 S 7 10.00 Mostly Cloudy BKN090 37.9 34.9 89% 33 29.77 0.0
08 06:15 Calm 10.00 Partly Cloudy SCT090 32.4 30 91% 29.77 0.0
08 05:55 Calm 10.00 Partly Cloudy SCT100 32.5 30 90% 29.77 0.0
08 05:35 Calm 10.00 Mostly Cloudy BKN100 33.3 30.7 90% 29.77 0.0
08 05:15 Calm 10.00 Overcast OVC100 35.6 32.4 88% 29.77 0.0
08 04:55 Calm 10.00 Overcast SCT080 OVC100 35.8 32.7 89% 29.78 0.0
08 04:35 Calm 10.00 Overcast SCT075 OVC100 35.8 32.7 89% 29.78 0.0
08 04:15 Calm 10.00 Overcast SCT070 OVC100 36 33.1 89% 29.79 0.0
08 03:55 Calm 10.00 Overcast BKN070 OVC100 35.4 32.4 89% 29.8 0.0
08 03:35 Calm 10.00 Overcast SCT070 SCT080 OVC100 35.8 32.9 89% 29.8 0.0
08 03:15 Calm 10.00 Overcast SCT070 OVC100 35.8 32.7 89% 29.8 0.0
08 02:55 Calm 10.00 Overcast SCT070 OVC100 35.8 32.9 89% 29.81 0.0
08 02:35 Calm 10.00 Overcast BKN070 BKN085 OVC100 36 32.9 89% 29.81 0.0
08 02:15 Calm 10.00 Overcast SCT070 OVC100 36 32.9 89% 29.81 0.0
08 01:55 Calm 10.00 Overcast SCT080 OVC100 36 32.9 89% 29.81 0.0
08 01:35 Calm 10.00 Overcast SCT075 OVC090 37.4 34.3 89% 29.82 0.0
08 01:15 Calm 10.00 Overcast OVC090 36.9 33.8 89% 29.83 0.0
08 00:55 Calm 10.00 Overcast SCT070 OVC090 35.8 32.9 43 35.4 89% 29.83 0.0
08 00:35 Calm 10.00 Mostly Cloudy BKN080 BKN100 36.3 33.3 89% 29.83 0.0
08 00:15 Calm 10.00 Mostly Cloudy SCT075 BKN090 BKN110 39.6 36.5 89% 29.84 0.0
07 23:55 N 6 10.00 Overcast SCT047 BKN080 OVC090 40.3 37.2 89% 37 29.84 0.0
07 23:35 N 8 10.00 Overcast SCT050 BKN065 OVC110 40.3 34.9 81% 35 29.85 0.0
07 23:15 Calm 10.00 Overcast BKN065 OVC090 40.5 33.1 75% 29.85 0.0
07 22:55 Calm 10.00 Overcast SCT070 OVC090 40.1 32.2 73% 29.85 0.0
07 22:30 W 6 10.00 Overcast BKN070 OVC090 40.6 31.6 70% 37 29.84 0.0
07 22:15 SW 3 10.00 Mostly Cloudy SCT080 BKN100 40.3 31.6 71% 29.84 0.0
07 21:55 S 3 10.00 Fair CLR 40.1 31.6 72% 29.83 0.0
07 21:35 S 3 10.00 Partly Cloudy SCT110 40.1 31.8 72% 29.83 0.0
07 21:15 S 6 10.00 Fair CLR 40.5 31.8 71% 37 29.83 0.0
07 20:55 S 6 10.00 Fair CLR 40.5 32 72% 37 29.83 0.0
07 20:35 S 7 10.00 Fair CLR 40.8 32.2 71% 37 29.82 0.0
07 20:15 S 9 10.00 Partly Cloudy SCT110 41.2 30.9 67% 36 29.82 0.0
07 19:55 S 8 10.00 Mostly Cloudy BKN100 42.1 29.8 62% 38 29.82 0.0
07 19:35 S 9 10.00 Overcast OVC100 42.8 27.5 55% 38 29.82 0.0
07 19:15 S 7 10.00 Overcast OVC100 42.8 29.8 60% 39 29.81 0.0
07 18:55 S 10 10.00 Overcast OVC100 42.8 29.5 47.8 42.8 59% 38 29.82 0.0
07 18:35 S 9 G 16 10.00 Mostly Cloudy BKN100 42.8 28.8 58% 38 29.82 0.0
07 18:15 S 12 G 18 10.00 Mostly Cloudy BKN100 42.8 28.4 57% 37 29.82 0.0
07 17:55 S 13 G 18 10.00 Overcast SCT070 OVC090 43.7 28.6 55% 38 29.82 0.0
07 17:35 S 12 G 16 10.00 Overcast BKN070 OVC090 44.2 28 53% 39 29.82 0.0
07 17:15 S 9 10.00 Overcast SCT044 BKN070 OVC100 44.6 23.7 44% 40 29.83 0.0
07 16:55 S 12 G 16 10.00 Overcast SCT049 BKN055 OVC075 44.6 25.3 47% 39 29.83 0.0
07 16:35 S 10 G 16 10.00 Overcast SCT047 BKN055 OVC080 44.6 24.6 45% 40 29.83 0.0
07 16:15 SW 8 10.00 Overcast SCT070 SCT080 OVC090 46.8 21.7 37% 43 29.83 0.0
07 15:55 SW 8 10.00 Overcast OVC100 46.9 23 39% 44 29.83 0.0
07 15:35 SW 9 10.00 Overcast SCT050 BKN080 OVC090 46.6 23.4 40% 43 29.83 0.0
07 15:15 W 9 10.00 Overcast SCT050 SCT070 OVC090 45.7 23.9 42% 42 29.83 0.0
07 14:55 SW 12 10.00 Overcast OVC090 46.4 22.1 38% 42 29.84 0.0
07 14:35 SW 12 G 20 10.00 Overcast SCT065 SCT080 OVC090 46 22.5 39% 41 29.84 0.0
07 14:15 SW 9 10.00 Overcast SCT055 BKN065 OVC090 46.2 22.8 40% 42 29.84 0.0
07 13:55 SW 9 10.00 Overcast BKN075 OVC090 46 22.6 40% 42 29.84 0.0
07 13:35 SW 8 10.00 Overcast OVC075 45.7 22.1 39% 42 29.84 0.0
07 13:15 SW 7 10.00 Overcast OVC085 45.9 23.2 41% 43 29.85 0.0
07 12:55 SW 10 10.00 Overcast OVC085 46.4 24.8 46.4 40.3 43% 42 29.85 0.0
07 12:35 W 9 10.00 Overcast OVC085 45.1 24.4 44% 41 29.86 0.0
07 12:15 SW 13 G 16 10.00 Overcast OVC085 45.9 23.4 41% 41 29.87 0.0
07 11:55 SW 8 10.00 Overcast OVC085 45.3 22.1 40% 42 29.87 0.0
07 11:35 SW 8 10.00 Overcast OVC085 45.9 24.1 42% 42 29.88 0.0
07 11:15 SW 8 10.00 Overcast OVC085 45.1 25.2 46% 41 29.88 0.0
07 10:55 SW 7 10.00 Overcast OVC075 44.4 26.2 49% 41 29.89 0.0
07 10:35 SW 7 10.00 Overcast OVC075 43 27.9 55% 39 29.89 0.0
07 10:15 SW 7 10.00 Overcast SCT060 OVC075 42.4 28.6 58% 39 29.9 0.0
07 09:55 SW 6 10.00 Overcast BKN060 OVC075 41.9 29.7 62% 39 29.9 0.0
07 09:35 W 5 10.00 Overcast SCT049 BKN060 OVC075 41.7 28 58% 39 29.9 0.0
07 09:15 W 3 10.00 Overcast OVC060 41.4 27.1 57% 29.9 0.0
07 08:55 W 6 10.00 Overcast BKN060 OVC070 41.4 27.9 59% 38 29.9 0.0
07 08:15 W 6 10.00 Overcast SCT060 OVC070 41.4 28.9 61% 38 29.9 0.0
07 07:55 W 6 10.00 Overcast OVC070 41.4 27.1 57% 38 29.9 0.0
07 07:35 SW 5 10.00 Overcast OVC070 41 29.1 63% 38 29.9 0.0
07 07:15 SW 6 10.00 Overcast OVC070 40.5 31.5 70% 37 29.89 0.0
07 06:55 SW 7 10.00 Overcast OVC070 40.3 33.6 41 33.3 77% 36 29.89 0.0
07 06:35 SW 5 10.00 Overcast OVC070 39.4 32.2 75% 37 29.88 0.0
07 06:15 Calm 10.00 Overcast OVC070 38.5 31.8 77% 29.88 0.0
07 05:55 Calm 10.00 Overcast OVC070 36.5 33.3 88% 29.88 0.0
07 05:35 Calm 10.00 Overcast OVC080 34.2 31.6 91% 29.88 0.0
07 05:15 Calm 10.00 Overcast OVC080 33.3 30.9 91% 29.88 0.0
07 04:55 Calm 10.00 Overcast OVC080 34 31.3 90% 29.88 0.0
07 04:35 Calm 10.00 Overcast OVC080 34.9 32 89% 29.88 0.0
07 04:15 Calm 10.00 Overcast OVC080 35.2 32.2 89% 29.88 0.0
07 03:55 Calm 10.00 Overcast OVC080 35.8 32.4 87% 29.88 0.0
07 03:35 Calm 10.00 Overcast OVC080 37.2 32.2 82% 29.89 0.0
07 03:15 Calm 10.00 Overcast OVC080 39 29.1 68% 29.89 0.0
07 02:55 Calm 10.00 Overcast OVC080 39.4 27.9 63% 29.89 0.0
07 02:35 Calm 10.00 Overcast OVC080 39.6 27.7 63% 29.9 0.0
07 02:15 Calm 10.00 Overcast OVC080 40.1 27.5 61% 29.9 0.0
07 01:55 Calm 10.00 Overcast OVC080 40.1 29.1 65% 29.9 0.0
07 01:30 W 5 10.00 Overcast OVC080 40.3 29.8 66% 38 29.91 0.0
07 01:15 Calm 10.00 Overcast SCT060 OVC080 41 30.4 66% 29.91 0.0
07 00:55 W 5 10.00 Overcast SCT060 OVC080 40.1 33.8 41 37.6 78% 37 29.92 0.0
07 00:35 W 3 10.00 Overcast OVC080 39.9 31.5 72% 29.92 0.0
07 00:15 Calm 10.00 Overcast SCT060 OVC080 39.2 30.6 71% 29.92 0.0
Date Time (cdt) Wind (mph) Vis. (mi.) Weather Sky Cond. Air Dwpt Max. Min. Relative Humidity Wind Chill (°F) Heat Index (°F) altimeter (in) sea level (mb) 1 hr 3 hr 6 hr
6 hour
Temperature (ºF) Pressure Precipitation (in)